Terminal Aerodrome Forecast
Issued by NWS Wakefield, VA

Home | Current Version | Previous Version | Text Only | Print | Product List | Glossary On
Versions: 1 2 3 4 5 6 7 8 9 10 11 12 13 14 15 16 17 18 19 20 21 22 23 24 25 26
000
FTUS41 KAKQ 301743 RRA
TAFORF
TAF
KORF 301743Z 3018/0118 10008KT P6SM BKN100
      TEMPO 3018/3020 BKN025
     FM302000 11008KT P6SM VCTS BKN080CB
     FM010000 12006KT P6SM VCSH BKN025
     FM010600 16006KT P6SM OVC050=

USA.gov is the U.S. government's official web portal to all federal, state and local government web resources and services.